Time;durP1;ratioP1;P1;durP2;ratioP2;P2;SDS_P1;SDS_P2;PMS_P1;PMS_P2;Temp;Humidity;BMP_temperature;BMP_pressure;BME280_temperature;BME280_humidity;BME280_pressure;Samples;Min_cycle;Max_cycle;Signal;HPM_P1;HPM_P2
2021/01/06 00:02:14;;;;;;;50.55;28.83;;;;;;;;;;5056044;28;20041;-81
2021/01/06 00:04:40;;;;;;;54.50;31.58;;;;;;;;;;5056460;28;20037;-81
2021/01/06 00:07:06;;;;;;;54.08;31.02;;;;;;;;;;5056176;28;20044;-81
2021/01/06 00:09:32;;;;;;;53.17;30.15;;;;;;;;;;5057275;28;20100;-81
2021/01/06 00:11:58;;;;;;;50.92;29.63;;;;;;;;;;5057130;28;20065;-82
2021/01/06 00:14:24;;;;;;;50.33;30.27;;;;;;;;;;5056404;28;20064;-81
2021/01/06 00:16:52;;;;;;;53.10;30.13;;;;;;;;;;5057217;28;20021;-81
2021/01/06 00:19:18;;;;;;;53.22;30.10;;;;;;;;;;5057196;28;20044;-81
2021/01/06 00:21:45;;;;;;;54.55;30.90;;;;;;;;;;5057011;28;20063;-81
2021/01/06 00:24:11;;;;;;;57.03;31.88;;;;;;;;;;5056893;28;20071;-81
2021/01/06 00:26:38;;;;;;;52.42;30.48;;;;;;;;;;5056976;28;20017;-81
2021/01/06 00:29:07;;;;;;;48.88;28.50;;;;;;;;;;5057254;28;20031;-81
2021/01/06 00:31:43;;;;;;;48.92;28.38;;;;;;;;;;5057018;28;20041;-81
2021/01/06 00:34:10;;;;;;;48.90;27.92;;;;;;;;;;5056907;28;20025;-81
2021/01/06 00:36:36;;;;;;;50.90;30.38;;;;;;;;;;5056882;28;20025;-81
2021/01/06 00:39:04;;;;;;;52.92;29.27;;;;;;;;;;5056114;28;20029;-81
2021/01/06 00:41:31;;;;;;;51.50;29.15;;;;;;;;;;5056528;28;20037;-81
2021/01/06 00:43:58;;;;;;;49.38;28.63;;;;;;;;;;5056922;28;20021;-81
2021/01/06 00:46:28;;;;;;;49.15;28.63;;;;;;;;;;5056848;28;20029;-81
2021/01/06 00:48:54;;;;;;;43.92;26.55;;;;;;;;;;5057062;28;20090;-81
2021/01/06 00:51:20;;;;;;;48.78;26.88;;;;;;;;;;5056603;28;20020;-81
2021/01/06 00:53:46;;;;;;;48.85;26.30;;;;;;;;;;5056597;28;20460;-81
2021/01/06 00:56:12;;;;;;;41.25;26.20;;;;;;;;;;5056718;28;20025;-81
2021/01/06 00:58:38;;;;;;;44.53;25.13;;;;;;;;;;5055706;28;20020;-82
2021/01/06 01:01:04;;;;;;;42.63;25.20;;;;;;;;;;5055507;28;20132;-80
2021/01/06 01:03:48;;;;;;;39.72;25.60;;;;;;;;;;5055480;28;20052;-80
2021/01/06 01:06:22;;;;;;;41.10;24.05;;;;;;;;;;5055453;28;20102;-81
2021/01/06 01:08:48;;;;;;;39.53;24.70;;;;;;;;;;5055572;28;20426;-81
2021/01/06 01:11:14;;;;;;;43.25;23.95;;;;;;;;;;5056649;28;20123;-81
2021/01/06 01:13:40;;;;;;;42.00;24.67;;;;;;;;;;5056617;28;20029;-80
2021/01/06 01:16:06;;;;;;;38.08;23.17;;;;;;;;;;5056571;28;20418;-80
2021/01/06 01:18:48;;;;;;;37.58;23.35;;;;;;;;;;5056450;28;20494;-80
2021/01/06 01:21:17;;;;;;;34.38;22.90;;;;;;;;;;5056330;28;20326;-80
2021/01/06 01:23:43;;;;;;;31.85;21.45;;;;;;;;;;5055434;28;20029;-81
2021/01/06 01:26:10;;;;;;;34.92;22.52;;;;;;;;;;5058052;28;20027;-81
2021/01/06 01:28:36;;;;;;;32.97;21.63;;;;;;;;;;5059295;28;20082;-80
2021/01/06 01:31:02;;;;;;;39.53;22.00;;;;;;;;;;5060294;28;20029;-81
2021/01/06 01:33:28;;;;;;;40.15;23.90;;;;;;;;;;5059960;28;20128;-81
2021/01/06 01:35:55;;;;;;;37.00;22.58;;;;;;;;;;5058661;28;20100;-81
2021/01/06 01:38:23;;;;;;;37.78;22.52;;;;;;;;;;5060237;28;20025;-81
2021/01/06 01:40:56;;;;;;;41.10;23.38;;;;;;;;;;5058821;28;20074;-80
2021/01/06 01:43:22;;;;;;;37.42;22.00;;;;;;;;;;5060065;28;20017;-81
2021/01/06 01:45:51;;;;;;;38.97;23.05;;;;;;;;;;5059880;28;20025;-81
2021/01/06 01:48:17;;;;;;;37.75;23.13;;;;;;;;;;5058759;28;20388;-82
2021/01/06 01:50:44;;;;;;;42.60;24.83;;;;;;;;;;5059651;28;20028;-82
2021/01/06 01:53:12;;;;;;;38.92;23.42;;;;;;;;;;5060275;28;20112;-82
2021/01/06 01:55:38;;;;;;;47.30;25.67;;;;;;;;;;5058421;28;20041;-82
2021/01/06 01:58:13;;;;;;;37.63;22.15;;;;;;;;;;5059799;28;20021;-82
2021/01/06 02:00:40;;;;;;;38.08;22.83;;;;;;;;;;5059556;28;20033;-82
2021/01/06 02:03:11;;;;;;;38.78;22.73;;;;;;;;;;5059524;28;20029;-82
2021/01/06 02:05:46;;;;;;;40.67;22.80;;;;;;;;;;5059754;28;20021;-82
2021/01/06 02:08:21;;;;;;;37.75;22.52;;;;;;;;;;5059385;28;20037;-81
2021/01/06 02:10:52;;;;;;;39.53;23.58;;;;;;;;;;5059594;28;20400;-81
2021/01/06 02:13:23;;;;;;;43.63;22.55;;;;;;;;;;5059498;28;20040;-81
2021/01/06 02:16:00;;;;;;;41.13;23.42;;;;;;;;;;5059386;28;20032;-81
2021/01/06 02:18:26;;;;;;;60.05;33.05;;;;;;;;;;5059298;28;20059;-81
2021/01/06 02:21:03;;;;;;;76.88;42.25;;;;;;;;;;5059229;28;20029;-81
2021/01/06 02:23:29;;;;;;;51.80;28.05;;;;;;;;;;5059213;28;20425;-81
2021/01/06 02:25:55;;;;;;;46.65;25.98;;;;;;;;;;5059174;28;20029;-81
2021/01/06 02:28:21;;;;;;;40.45;23.80;;;;;;;;;;5059189;28;20022;-80
2021/01/06 02:30:47;;;;;;;39.60;23.52;;;;;;;;;;5059230;28;20021;-81
2021/01/06 02:33:13;;;;;;;37.25;21.77;;;;;;;;;;5058816;28;20033;-81
2021/01/06 02:35:39;;;;;;;41.28;21.67;;;;;;;;;;5059064;28;20296;-80
2021/01/06 02:38:05;;;;;;;35.28;22.05;;;;;;;;;;5058195;28;20104;-80
2021/01/06 02:40:31;;;;;;;33.67;21.55;;;;;;;;;;5058820;28;20025;-80
2021/01/06 02:42:57;;;;;;;33.10;20.58;;;;;;;;;;5058749;28;20021;-80
2021/01/06 02:45:23;;;;;;;32.30;21.15;;;;;;;;;;5058764;28;20025;-80
2021/01/06 02:47:51;;;;;;;34.60;21.13;;;;;;;;;;5058655;28;20017;-81
2021/01/06 02:50:18;;;;;;;34.85;20.95;;;;;;;;;;5058732;28;20087;-81
2021/01/06 02:52:49;;;;;;;31.95;20.70;;;;;;;;;;5058523;28;20025;-81
2021/01/06 02:55:16;;;;;;;33.45;18.65;;;;;;;;;;5058556;28;20036;-81
2021/01/06 02:57:43;;;;;;;27.33;18.85;;;;;;;;;;5058523;28;20021;-81
2021/01/06 03:00:10;;;;;;;32.17;19.35;;;;;;;;;;5058665;28;20040;-80
2021/01/06 03:02:36;;;;;;;30.63;19.35;;;;;;;;;;5058288;28;20021;-80
2021/01/06 03:05:14;;;;;;;39.20;23.63;;;;;;;;;;5058532;28;20021;-80
2021/01/06 03:07:40;;;;;;;38.22;21.33;;;;;;;;;;5056941;28;20033;-80
2021/01/06 03:10:07;;;;;;;33.97;21.20;;;;;;;;;;5058195;28;20343;-80
2021/01/06 03:12:34;;;;;;;35.72;22.23;;;;;;;;;;5058156;28;20041;-80
2021/01/06 03:15:01;;;;;;;35.08;21.52;;;;;;;;;;5058248;28;20032;-81
2021/01/06 03:17:29;;;;;;;33.67;20.13;;;;;;;;;;5056992;28;20029;-79
2021/01/06 03:19:57;;;;;;;32.83;21.10;;;;;;;;;;5058221;28;20039;-80
2021/01/06 03:22:24;;;;;;;34.97;20.23;;;;;;;;;;5058031;28;20031;-80
2021/01/06 03:24:54;;;;;;;30.65;19.27;;;;;;;;;;5058042;28;20128;-80
2021/01/06 03:27:21;;;;;;;31.40;18.33;;;;;;;;;;5057726;28;20377;-81
2021/01/06 03:29:47;;;;;;;27.67;17.92;;;;;;;;;;5057900;28;20411;-80
2021/01/06 03:32:45;;;;;;;26.30;17.17;;;;;;;;;;5057752;28;20319;-80
2021/01/06 03:35:23;;;;;;;25.90;16.50;;;;;;;;;;5057854;28;20112;-80
2021/01/06 03:37:52;;;;;;;28.05;17.17;;;;;;;;;;5057715;28;20403;-80
2021/01/06 03:40:45;;;;;;;25.08;16.05;;;;;;;;;;5057404;28;20395;-80
2021/01/06 03:43:11;;;;;;;32.92;17.75;;;;;;;;;;5057196;28;20033;-81
2021/01/06 03:45:39;;;;;;;28.70;16.85;;;;;;;;;;5057605;28;20063;-80
2021/01/06 03:48:11;;;;;;;28.55;16.92;;;;;;;;;;5057482;28;20052;-80
2021/01/06 03:50:41;;;;;;;30.65;17.73;;;;;;;;;;5056276;28;20021;-81
2021/01/06 03:53:19;;;;;;;30.05;18.98;;;;;;;;;;5057258;28;20029;-81
2021/01/06 03:55:56;;;;;;;28.17;17.83;;;;;;;;;;5057127;28;20025;-81
2021/01/06 03:58:40;;;;;;;28.95;17.02;;;;;;;;;;5057839;28;20029;-82
2021/01/06 04:01:25;;;;;;;25.45;16.80;;;;;;;;;;5056966;28;20021;-80
2021/01/06 04:03:57;;;;;;;30.77;18.08;;;;;;;;;;5057235;28;20328;-81
2021/01/06 04:06:25;;;;;;;26.20;16.00;;;;;;;;;;5057392;28;20021;-82
2021/01/06 04:08:52;;;;;;;26.73;17.27;;;;;;;;;;5057350;28;20053;-80
2021/01/06 04:11:20;;;;;;;29.08;18.08;;;;;;;;;;5057186;28;20032;-80
2021/01/06 04:13:46;;;;;;;27.33;16.30;;;;;;;;;;5057263;28;20056;-80
2021/01/06 04:16:15;;;;;;;40.80;21.63;;;;;;;;;;5057417;28;20017;-80
2021/01/06 04:18:42;;;;;;;49.53;24.05;;;;;;;;;;5057179;28;20032;-80
2021/01/06 04:21:08;;;;;;;33.35;19.13;;;;;;;;;;5057335;28;20104;-80
2021/01/06 04:23:34;;;;;;;37.53;18.73;;;;;;;;;;5056985;28;20441;-79
2021/01/06 04:26:01;;;;;;;36.28;20.00;;;;;;;;;;5057016;28;20025;-79
2021/01/06 04:28:28;;;;;;;32.83;18.30;;;;;;;;;;5056839;28;20021;-79
2021/01/06 04:30:56;;;;;;;32.78;18.48;;;;;;;;;;5056952;28;20323;-79
2021/01/06 04:33:26;;;;;;;30.00;16.65;;;;;;;;;;5056815;28;20738;-79
2021/01/06 04:35:53;;;;;;;26.33;16.05;;;;;;;;;;5056876;28;20047;-80
2021/01/06 04:38:30;;;;;;;23.98;15.20;;;;;;;;;;5056833;28;20108;-80
2021/01/06 04:41:16;;;;;;;27.23;14.70;;;;;;;;;;5057098;28;20032;-79
2021/01/06 04:43:49;;;;;;;25.15;15.27;;;;;;;;;;5038111;28;20123;-79
2021/01/06 04:46:30;;;;;;;24.45;15.27;;;;;;;;;;5054996;28;20056;-81
2021/01/06 04:49:11;;;;;;;25.63;15.30;;;;;;;;;;5038240;28;20051;-80
2021/01/06 04:51:48;;;;;;;24.13;15.20;;;;;;;;;;5038515;28;20296;-81
2021/01/06 04:54:33;;;;;;;21.40;13.30;;;;;;;;;;5054913;28;20451;-81
2021/01/06 04:56:59;;;;;;;23.77;13.63;;;;;;;;;;5054976;28;20060;-82
2021/01/06 04:59:31;;;;;;;20.70;13.02;;;;;;;;;;5054874;28;20036;-80
2021/01/06 05:02:02;;;;;;;23.52;13.45;;;;;;;;;;5041111;28;20041;-81
2021/01/06 05:04:37;;;;;;;25.67;14.60;;;;;;;;;;5058844;28;20029;-80
2021/01/06 05:07:06;;;;;;;34.00;16.35;;;;;;;;;;5058134;28;20067;-80
2021/01/06 05:09:35;;;;;;;35.83;19.35;;;;;;;;;;5058830;28;20464;-81
2021/01/06 05:12:24;;;;;;;22.23;13.13;;;;;;;;;;5058669;28;20399;-80
2021/01/06 05:14:53;;;;;;;22.33;13.38;;;;;;;;;;5050966;28;20072;-81
2021/01/06 05:17:19;;;;;;;22.17;12.68;;;;;;;;;;5058686;28;20025;-81
2021/01/06 05:20:22;;;;;;;26.80;13.60;;;;;;;;;;5058565;28;20033;-80
2021/01/06 05:22:48;;;;;;;23.20;12.80;;;;;;;;;;5060022;28;20028;-80
2021/01/06 05:25:16;;;;;;;29.58;14.57;;;;;;;;;;5058371;28;20037;-80
2021/01/06 05:27:42;;;;;;;25.33;12.95;;;;;;;;;;5060591;28;20078;-82
2021/01/06 05:30:38;;;;;;;20.02;12.38;;;;;;;;;;5060469;28;20071;-81
2021/01/06 05:33:06;;;;;;;22.10;12.02;;;;;;;;;;5041303;28;20041;-81
2021/01/06 05:35:39;;;;;;;23.90;11.80;;;;;;;;;;5041669;28;20017;-81
2021/01/06 05:38:05;;;;;;;;;;;;;;;;;;5058626;28;20053;-81
2021/01/06 05:40:32;;;;;;;21.00;11.88;;;;;;;;;;5058138;28;19940;-81
2021/01/06 05:43:08;;;;;;;25.02;13.45;;;;;;;;;;5058167;28;20040;-81
2021/01/06 05:45:39;;;;;;;27.35;14.13;;;;;;;;;;5058088;28;20029;-81
2021/01/06 05:48:25;;;;;;;28.52;14.82;;;;;;;;;;5041243;28;20024;-81
2021/01/06 05:51:04;;;;;;;29.30;15.20;;;;;;;;;;4998287;28;20038;-81
2021/01/06 05:53:43;;;;;;;29.65;15.43;;;;;;;;;;4998557;28;20369;-81
2021/01/06 05:56:22;;;;;;;24.55;13.20;;;;;;;;;;4998401;28;20208;-81
2021/01/06 05:58:49;;;;;;;26.67;14.30;;;;;;;;;;4998504;28;20026;-81
2021/01/06 06:01:29;;;;;;;27.63;14.70;;;;;;;;;;4998201;28;20034;-81
2021/01/06 06:03:55;;;;;;;23.98;13.57;;;;;;;;;;4998029;28;20042;-80
2021/01/06 06:06:27;;;;;;;28.73;17.48;;;;;;;;;;4998254;28;20102;-79
2021/01/06 06:09:03;;;;;;;24.45;16.58;;;;;;;;;;5003679;28;20040;-79
2021/01/06 06:11:38;;;;;;;24.38;17.17;;;;;;;;;;5001218;28;20434;-80
2021/01/06 06:14:22;;;;;;;23.88;16.08;;;;;;;;;;5016998;28;20054;-80
2021/01/06 06:16:48;;;;;;;20.25;12.95;;;;;;;;;;5017896;28;20209;-80
2021/01/06 06:19:33;;;;;;;19.75;12.05;;;;;;;;;;5017650;28;20120;-81
2021/01/06 06:22:10;;;;;;;24.50;16.63;;;;;;;;;;5017716;28;20041;-81
2021/01/06 06:24:55;;;;;;;30.13;19.00;;;;;;;;;;5017314;28;20214;-80
2021/01/06 06:27:33;;;;;;;40.15;26.65;;;;;;;;;;5013426;28;20380;-80
2021/01/06 06:30:11;;;;;;;24.55;16.13;;;;;;;;;;5059022;28;20486;-81
2021/01/06 06:32:38;;;;;;;66.53;29.45;;;;;;;;;;5057856;28;20041;-80
2021/01/06 06:35:06;;;;;;;39.97;21.02;;;;;;;;;;5059028;28;20047;-80
2021/01/06 06:37:33;;;;;;;45.53;25.23;;;;;;;;;;5057958;28;20025;-80
2021/01/06 06:39:59;;;;;;;101.45;38.85;;;;;;;;;;5058689;28;20342;-79
2021/01/06 06:42:28;;;;;;;68.95;26.20;;;;;;;;;;5058809;28;20025;-79
2021/01/06 06:44:57;;;;;;;77.75;28.55;;;;;;;;;;5058838;28;20078;-80
2021/01/06 06:47:42;;;;;;;83.13;37.03;;;;;;;;;;5058691;28;20025;-79
2021/01/06 06:50:08;;;;;;;73.90;33.90;;;;;;;;;;5058277;28;20345;-80
2021/01/06 06:52:39;;;;;;;173.80;54.53;;;;;;;;;;5058588;28;20048;-80
2021/01/06 06:55:24;;;;;;;105.20;48.33;;;;;;;;;;5058745;28;20028;-80
2021/01/06 06:57:57;;;;;;;73.85;35.90;;;;;;;;;;5058397;28;20399;-80
2021/01/06 07:00:28;;;;;;;78.10;36.95;;;;;;;;;;5058483;28;20434;-80
2021/01/06 07:03:13;;;;;;;129.63;76.70;;;;;;;;;;5058455;28;20021;-80
2021/01/06 07:05:48;;;;;;;66.40;39.50;;;;;;;;;;5058161;28;20029;-80
2021/01/06 07:08:32;;;;;;;51.03;30.80;;;;;;;;;;5056459;28;20132;-80
2021/01/06 07:11:00;;;;;;;50.15;28.73;;;;;;;;;;5058455;28;20028;-81
2021/01/06 07:13:26;;;;;;;39.35;21.80;;;;;;;;;;5058360;28;20070;-80
2021/01/06 07:15:54;;;;;;;33.05;18.80;;;;;;;;;;5058201;28;20025;-80
2021/01/06 07:18:23;;;;;;;29.90;15.90;;;;;;;;;;5056958;28;20025;-78
2021/01/06 07:20:58;;;;;;;30.85;17.30;;;;;;;;;;5058144;28;20379;-79
2021/01/06 07:23:26;;;;;;;40.33;19.45;;;;;;;;;;5057774;28;20106;-79
2021/01/06 07:26:04;;;;;;;28.08;16.20;;;;;;;;;;5058044;28;20031;-79
2021/01/06 07:28:30;;;;;;;31.67;17.95;;;;;;;;;;5057821;28;20021;-79
2021/01/06 07:31:09;;;;;;;34.80;18.63;;;;;;;;;;5057699;28;20029;-81
2021/01/06 07:33:39;;;;;;;32.83;18.55;;;;;;;;;;5057441;28;20033;-80
2021/01/06 07:36:08;;;;;;;39.05;22.42;;;;;;;;;;5056636;28;20078;-81
2021/01/06 07:38:34;;;;;;;36.63;22.98;;;;;;;;;;5057689;28;20211;-79
2021/01/06 07:41:00;;;;;;;40.55;27.88;;;;;;;;;;5057444;28;20033;-80
2021/01/06 07:43:28;;;;;;;76.10;47.95;;;;;;;;;;5057533;28;20342;-79
2021/01/06 07:45:57;;;;;;;73.80;42.95;;;;;;;;;;5057657;28;20028;-79
2021/01/06 07:48:42;;;;;;;71.57;36.50;;;;;;;;;;5057608;28;20054;-79
2021/01/06 07:51:11;;;;;;;78.55;39.92;;;;;;;;;;5057480;28;20066;-80
2021/01/06 07:53:46;;;;;;;77.88;39.55;;;;;;;;;;5057248;28;20146;-81
2021/01/06 07:56:19;;;;;;;72.07;36.58;;;;;;;;;;5057619;28;20029;-81
2021/01/06 07:58:51;;;;;;;69.82;37.92;;;;;;;;;;5057361;28;20029;-81
2021/01/06 08:01:34;;;;;;;33.40;19.40;;;;;;;;;;5057296;28;20021;-80
2021/01/06 08:04:00;;;;;;;;;;;;;;;;;;5057762;28;20025;-81
2021/01/06 08:06:44;;;;;;;42.90;20.08;;;;;;;;;;5057023;28;19912;-80
2021/01/06 08:09:11;;;;;;;46.38;20.35;;;;;;;;;;5056120;28;20520;-80
2021/01/06 08:11:47;;;;;;;43.95;19.95;;;;;;;;;;5057246;28;20020;-81
2021/01/06 08:14:19;;;;;;;38.53;21.40;;;;;;;;;;5057226;28;20021;-80
2021/01/06 08:16:50;;;;;;;47.47;25.77;;;;;;;;;;5057146;28;20029;-80
2021/01/06 08:19:21;;;;;;;67.45;34.33;;;;;;;;;;5057309;28;20300;-80
2021/01/06 08:21:50;;;;;;;78.53;36.92;;;;;;;;;;5057164;28;20378;-80
2021/01/06 08:24:16;;;;;;;91.00;41.38;;;;;;;;;;5057209;28;20063;-80
2021/01/06 08:26:51;;;;;;;93.03;42.20;;;;;;;;;;5057138;28;20105;-80
2021/01/06 08:29:20;;;;;;;88.93;44.53;;;;;;;;;;5056885;28;20030;-79
2021/01/06 08:31:47;;;;;;;79.10;39.45;;;;;;;;;;5056827;28;20086;-80
2021/01/06 08:34:33;;;;;;;87.10;43.05;;;;;;;;;;5055776;28;20120;-80
2021/01/06 08:37:01;;;;;;;77.47;42.50;;;;;;;;;;5056596;28;20315;-81
2021/01/06 08:39:28;;;;;;;78.88;41.80;;;;;;;;;;5056854;28;20021;-80
2021/01/06 08:41:56;;;;;;;87.93;49.05;;;;;;;;;;5057013;28;20494;-80
2021/01/06 08:44:34;;;;;;;64.93;36.28;;;;;;;;;;5057207;28;20140;-80
2021/01/06 08:47:02;;;;;;;56.72;30.08;;;;;;;;;;5055589;28;20029;-80
2021/01/06 08:49:42;;;;;;;52.65;27.05;;;;;;;;;;5056918;28;20053;-80
2021/01/06 08:52:17;;;;;;;63.90;32.53;;;;;;;;;;5056774;28;20021;-80
2021/01/06 08:54:44;;;;;;;68.90;34.13;;;;;;;;;;5056655;28;20040;-80
2021/01/06 08:57:22;;;;;;;69.35;32.78;;;;;;;;;;5056748;28;20021;-80
2021/01/06 08:59:48;;;;;;;60.88;31.80;;;;;;;;;;5056610;28;20093;-80
2021/01/06 09:02:33;;;;;;;61.40;31.25;;;;;;;;;;5056825;28;20029;-80
2021/01/06 09:04:59;;;;;;;53.50;29.65;;;;;;;;;;5056851;28;20096;-80
2021/01/06 09:07:33;;;;;;;39.40;20.02;;;;;;;;;;5056574;28;20398;-80
2021/01/06 09:10:11;;;;;;;36.15;19.77;;;;;;;;;;5056789;28;20025;-80
2021/01/06 09:12:55;;;;;;;41.30;23.20;;;;;;;;;;5055518;28;20128;-80
2021/01/06 09:15:57;;;;;;;48.97;27.38;;;;;;;;;;5056692;28;20067;-80
2021/01/06 09:18:37;;;;;;;64.78;31.20;;;;;;;;;;5054762;28;20025;-80
2021/01/06 09:21:16;;;;;;;106.40;40.67;;;;;;;;;;5037989;28;20123;-80
2021/01/06 09:23:44;;;;;;;90.97;37.97;;;;;;;;;;5054767;28;20025;-79
2021/01/06 09:26:14;;;;;;;73.60;34.47;;;;;;;;;;5037729;28;20060;-81
2021/01/06 09:28:41;;;;;;;122.72;45.10;;;;;;;;;;5038007;28;20047;-80
2021/01/06 09:31:07;;;;;;;157.25;53.58;;;;;;;;;;5048811;28;20025;-80
2021/01/06 09:33:35;;;;;;;252.68;96.57;;;;;;;;;;5052979;28;20095;-79
2021/01/06 09:36:02;;;;;;;167.52;69.22;;;;;;;;;;5045874;28;20028;-79
2021/01/06 09:38:28;;;;;;;166.82;69.90;;;;;;;;;;5036231;28;20021;-80
2021/01/06 09:40:56;;;;;;;154.25;66.22;;;;;;;;;;5052228;28;20112;-80
2021/01/06 09:43:25;;;;;;;79.55;35.67;;;;;;;;;;5052764;28;20021;-83
2021/01/06 09:45:51;;;;;;;55.92;28.20;;;;;;;;;;5041112;28;20038;-79
2021/01/06 09:48:18;;;;;;;40.78;20.83;;;;;;;;;;5051398;28;20068;-80
2021/01/06 09:50:51;;;;;;;46.45;23.00;;;;;;;;;;5057906;28;20484;-80
2021/01/06 09:53:19;;;;;;;175.55;63.67;;;;;;;;;;5041386;28;20443;-80
2021/01/06 09:55:50;;;;;;;120.30;56.25;;;;;;;;;;5039907;28;20033;-80
2021/01/06 09:58:25;;;;;;;129.45;53.08;;;;;;;;;;5040077;28;20301;-80
2021/01/06 10:00:54;;;;;;;74.05;32.03;;;;;;;;;;5038585;28;20116;-80
2021/01/06 10:03:20;;;;;;;82.13;33.65;;;;;;;;;;5038169;28;20034;-80
2021/01/06 10:06:07;;;;;;;61.92;27.13;;;;;;;;;;5039409;28;20412;-81
2021/01/06 10:08:42;;;;;;;106.97;54.05;;;;;;;;;;5039538;28;20058;-81
2021/01/06 10:11:18;;;;;;;104.78;45.58;;;;;;;;;;5039811;28;20032;-82
2021/01/06 10:13:44;;;;;;;206.85;70.18;;;;;;;;;;5039586;28;20450;-81
2021/01/06 10:16:42;;;;;;;147.73;56.28;;;;;;;;;;5039493;28;20037;-80
2021/01/06 10:19:10;;;;;;;116.20;48.45;;;;;;;;;;5057355;28;20446;-81
2021/01/06 10:21:39;;;;;;;104.28;45.53;;;;;;;;;;5057519;28;20045;-80
2021/01/06 10:24:17;;;;;;;96.10;41.20;;;;;;;;;;5040819;28;20496;-81
2021/01/06 10:26:49;;;;;;;83.18;35.63;;;;;;;;;;5040616;28;20033;-81
2021/01/06 10:29:21;;;;;;;83.53;34.08;;;;;;;;;;5040517;28;20450;-80
2021/01/06 10:32:01;;;;;;;79.95;32.78;;;;;;;;;;5040442;28;20041;-81
2021/01/06 10:34:40;;;;;;;59.90;28.17;;;;;;;;;;5057228;28;20028;-81
2021/01/06 10:37:16;;;;;;;69.35;30.90;;;;;;;;;;5057198;28;20409;-81
2021/01/06 10:39:43;;;;;;;62.60;30.25;;;;;;;;;;5057142;28;20025;-81
2021/01/06 10:42:18;;;;;;;64.97;28.35;;;;;;;;;;5057080;28;20037;-81
2021/01/06 10:45:07;;;;;;;52.42;24.50;;;;;;;;;;5057039;28;20025;-80
2021/01/06 10:47:33;;;;;;;48.45;25.45;;;;;;;;;;4997732;28;20030;-80
2021/01/06 10:50:00;;;;;;;60.45;28.65;;;;;;;;;;4997267;28;20034;-80
2021/01/06 10:52:28;;;;;;;44.47;23.50;;;;;;;;;;4997587;28;20084;-80
2021/01/06 10:54:54;;;;;;;59.63;26.88;;;;;;;;;;4986164;28;20378;-80
2021/01/06 10:57:20;;;;;;;224.05;51.50;;;;;;;;;;4978061;28;20126;-80
2021/01/06 11:00:04;;;;;;;180.43;48.70;;;;;;;;;;4977288;28;20166;-81
2021/01/06 11:02:36;;;;;;;83.80;36.35;;;;;;;;;;4961607;28;20552;-81
2021/01/06 11:05:09;;;;;;;60.13;31.85;;;;;;;;;;4961619;28;20448;-80
2021/01/06 11:07:53;;;;;;;108.18;45.92;;;;;;;;;;4977721;28;20134;-80
2021/01/06 11:10:19;;;;;;;69.68;32.78;;;;;;;;;;4977854;28;20046;-80
2021/01/06 11:13:15;;;;;;;62.28;30.83;;;;;;;;;;4977832;28;20054;-80
2021/01/06 11:15:49;;;;;;;71.05;35.33;;;;;;;;;;4939135;29;20059;-80
2021/01/06 11:18:17;;;;;;;67.30;35.35;;;;;;;;;;4938878;29;20046;-80
2021/01/06 11:20:47;;;;;;;65.05;34.08;;;;;;;;;;4939177;29;20116;-80
2021/01/06 11:23:24;;;;;;;61.42;33.50;;;;;;;;;;4939201;29;20072;-80
2021/01/06 11:25:52;;;;;;;84.22;47.78;;;;;;;;;;4996920;28;20409;-80
2021/01/06 11:28:30;;;;;;;53.50;32.00;;;;;;;;;;4980616;28;20031;-80
2021/01/06 11:31:22;;;;;;;59.00;30.73;;;;;;;;;;4980816;28;20470;-80
2021/01/06 11:33:50;;;;;;;60.20;30.40;;;;;;;;;;4996706;28;20169;-80
2021/01/06 11:36:36;;;;;;;54.53;30.10;;;;;;;;;;4996944;28;20299;-80
2021/01/06 11:39:02;;;;;;;46.85;25.10;;;;;;;;;;4996779;28;20035;-81
2021/01/06 11:41:28;;;;;;;49.28;25.35;;;;;;;;;;4996638;28;20026;-80
2021/01/06 11:43:58;;;;;;;51.47;26.80;;;;;;;;;;4996517;28;20397;-80
2021/01/06 11:46:27;;;;;;;52.35;26.52;;;;;;;;;;4996486;28;20038;-80
2021/01/06 11:49:05;;;;;;;47.80;24.85;;;;;;;;;;4974169;28;20034;-80
2021/01/06 11:51:31;;;;;;;47.25;24.77;;;;;;;;;;4982546;28;20044;-80
2021/01/06 11:54:17;;;;;;;58.28;28.33;;;;;;;;;;5055255;28;20067;-80
2021/01/06 11:56:48;;;;;;;40.55;23.95;;;;;;;;;;5054962;28;20407;-80
2021/01/06 11:59:30;;;;;;;44.65;24.35;;;;;;;;;;5055764;28;20036;-80
2021/01/06 12:01:59;;;;;;;40.13;22.52;;;;;;;;;;5055247;28;20090;-80
2021/01/06 12:04:44;;;;;;;51.92;27.98;;;;;;;;;;5038111;28;20040;-80
2021/01/06 12:07:36;;;;;;;43.50;23.67;;;;;;;;;;5055300;28;20095;-80
2021/01/06 12:10:22;;;;;;;57.63;27.67;;;;;;;;;;5041013;28;20057;-80
2021/01/06 12:12:51;;;;;;;64.05;29.85;;;;;;;;;;5057279;28;20056;-80
2021/01/06 12:15:23;;;;;;;59.45;28.90;;;;;;;;;;5056079;28;20192;-80
2021/01/06 12:17:52;;;;;;;58.42;27.83;;;;;;;;;;5056987;28;20111;-80
2021/01/06 12:20:24;;;;;;;64.20;30.75;;;;;;;;;;5056446;28;20430;-80
2021/01/06 12:23:09;;;;;;;75.43;35.90;;;;;;;;;;5055703;28;20032;-80
2021/01/06 12:25:39;;;;;;;77.80;35.72;;;;;;;;;;5057219;28;20048;-80
2021/01/06 12:28:12;;;;;;;68.35;33.00;;;;;;;;;;5057171;28;20060;-81
2021/01/06 12:30:51;;;;;;;73.78;35.35;;;;;;;;;;5055741;28;20033;-80
2021/01/06 12:33:17;;;;;;;69.75;35.17;;;;;;;;;;5055714;28;20036;-80
2021/01/06 12:35:44;;;;;;;62.00;33.28;;;;;;;;;;5057113;28;20029;-80
2021/01/06 12:38:19;;;;;;;109.95;56.95;;;;;;;;;;5056455;28;20033;-79
2021/01/06 12:41:00;;;;;;;187.05;66.55;;;;;;;;;;5056911;28;20037;-80
2021/01/06 12:43:28;;;;;;;167.32;60.65;;;;;;;;;;5056729;28;20017;-80
2021/01/06 12:46:16;;;;;;;71.07;34.25;;;;;;;;;;5056781;28;20044;-80
2021/01/06 12:48:56;;;;;;;93.70;44.58;;;;;;;;;;5056152;28;20025;-80
2021/01/06 12:51:25;;;;;;;77.45;40.00;;;;;;;;;;5056744;28;20024;-80
2021/01/06 12:54:14;;;;;;;66.00;32.63;;;;;;;;;;5056893;28;20308;-80
2021/01/06 12:56:44;;;;;;;56.70;30.10;;;;;;;;;;5056725;28;20434;-80
2021/01/06 12:59:15;;;;;;;62.92;33.15;;;;;;;;;;5055757;28;20032;-80
2021/01/06 13:01:59;;;;;;;64.05;31.73;;;;;;;;;;5056601;28;20295;-80
2021/01/06 13:04:32;;;;;;;65.25;34.20;;;;;;;;;;5056624;28;20025;-80
2021/01/06 13:06:58;;;;;;;;;;;;;;;;;;5056963;28;20446;-80
2021/01/06 13:09:46;;;;;;;51.25;26.30;;;;;;;;;;5056822;28;19908;-80
2021/01/06 13:12:12;;;;;;;61.55;28.85;;;;;;;;;;5056710;28;20033;-80
2021/01/06 13:14:46;;;;;;;55.80;27.75;;;;;;;;;;5056633;28;20100;-80
2021/01/06 13:17:12;;;;;;;44.72;23.50;;;;;;;;;;5056496;28;20037;-80
2021/01/06 13:19:40;;;;;;;44.05;23.23;;;;;;;;;;5056582;28;20025;-80
2021/01/06 13:22:22;;;;;;;46.08;21.20;;;;;;;;;;5057850;28;20047;-80
2021/01/06 13:24:52;;;;;;;43.13;20.77;;;;;;;;;;5060287;28;20418;-80
2021/01/06 13:27:36;;;;;;;44.50;22.20;;;;;;;;;;5060406;28;20029;-80
2021/01/06 13:30:14;;;;;;;43.70;20.60;;;;;;;;;;5059051;28;20296;-79
2021/01/06 13:32:48;;;;;;;46.78;21.35;;;;;;;;;;5060323;28;20087;-80
2021/01/06 13:35:31;;;;;;;38.72;19.50;;;;;;;;;;5060222;28;20035;-80
2021/01/06 13:38:20;;;;;;;42.42;20.75;;;;;;;;;;5060120;28;20048;-80
2021/01/06 13:40:46;;;;;;;53.63;24.23;;;;;;;;;;5058387;28;20387;-80
2021/01/06 13:43:15;;;;;;;41.42;23.25;;;;;;;;;;5060188;28;20029;-80
2021/01/06 13:45:46;;;;;;;45.28;22.70;;;;;;;;;;5059881;28;20040;-80
2021/01/06 13:48:15;;;;;;;54.83;24.65;;;;;;;;;;5059788;28;20060;-80
2021/01/06 13:50:49;;;;;;;52.25;24.77;;;;;;;;;;5058634;28;20123;-80
2021/01/06 13:53:15;;;;;;;51.63;24.63;;;;;;;;;;5058432;28;20124;-80
2021/01/06 13:55:57;;;;;;;93.22;33.47;;;;;;;;;;5059836;28;20036;-79
2021/01/06 13:58:29;;;;;;;74.00;33.47;;;;;;;;;;5059699;28;20029;-77
2021/01/06 14:01:14;;;;;;;65.40;34.22;;;;;;;;;;5059538;28;20403;-77
2021/01/06 14:03:44;;;;;;;112.10;36.13;;;;;;;;;;5059657;28;20500;-77
2021/01/06 14:06:13;;;;;;;143.07;42.08;;;;;;;;;;5059464;28;20043;-76
2021/01/06 14:08:56;;;;;;;97.95;34.22;;;;;;;;;;5059468;28;20454;-77
2021/01/06 14:11:40;;;;;;;49.72;25.88;;;;;;;;;;5059484;28;20335;-77
2021/01/06 14:14:15;;;;;;;42.35;20.83;;;;;;;;;;5059344;28;20029;-76
2021/01/06 14:16:53;;;;;;;47.20;23.10;;;;;;;;;;5059611;28;20025;-77
2021/01/06 14:19:57;;;;;;;50.28;25.75;;;;;;;;;;5059294;28;20033;-78
2021/01/06 14:22:29;;;;;;;60.70;26.70;;;;;;;;;;5057344;28;20120;-79
2021/01/06 14:24:56;;;;;;;55.40;26.48;;;;;;;;;;5040690;28;20037;-79
2021/01/06 14:27:28;;;;;;;56.28;27.98;;;;;;;;;;5057443;28;20025;-78
2021/01/06 14:30:03;;;;;;;98.88;48.78;;;;;;;;;;5057451;28;20100;-78
2021/01/06 14:32:32;;;;;;;73.80;35.58;;;;;;;;;;5057050;28;20039;-78
2021/01/06 14:35:10;;;;;;;75.38;30.23;;;;;;;;;;5056223;28;20071;-78
2021/01/06 14:38:01;;;;;;;79.80;30.55;;;;;;;;;;5057091;28;20024;-78
2021/01/06 14:40:31;;;;;;;85.70;28.85;;;;;;;;;;5054364;28;20037;-78
2021/01/06 14:43:03;;;;;;;82.68;27.90;;;;;;;;;;5040418;28;20056;-76
2021/01/06 14:45:33;;;;;;;81.68;29.42;;;;;;;;;;5056901;28;20338;-79
2021/01/06 14:48:02;;;;;;;86.93;29.75;;;;;;;;;;5040326;28;20052;-78